Flight Track Log - Related Links

Times and Time Zones

All times are in EDT time to prevent confusion due to time zone crossing. See the DAL221 flight status page for this flight to view local times or setup timezone preferences in your user account.

Time Position Orientation Groundspeed Altitude Reporting Facility
EDT Latitude Longitude Course Direction KTS MPH feet Rate Location/Type
Fri 09:33:32 PM 33.6350 -84.4490 270° West 195 224 1,200  Level FlightAware ADS-B
Fri 09:33:57 PM 33.6360 -84.4760 273° West 194 223 2,300 1,700 Climbing FlightAware ADS-B
Fri 09:34:32 PM 33.6350 -84.5130 268° West 221 254 2,900 1,200 Climbing FlightAware ADS-B
Fri 09:34:42 PM 33.6350 -84.5280 270° West 229 264 3,200 1,350 Climbing FlightAware ADS-B
Fri 09:35:12 PM 33.6300 -84.5670 261° West 249 287 3,800 1,467 Climbing FlightAware ADS-B
Fri 09:35:27 PM 33.6170 -84.5800 220° Southwest 248 285 4,300 2,200 Climbing FlightAware ADS-B
Fri 09:35:42 PM 33.6010 -84.5870 200° South 246 283 4,900 2,160 Climbing FlightAware ADS-B
Fri 09:35:52 PM 33.5900 -84.5890 189° South 247 284 5,200 2,100 Climbing FlightAware ADS-B
Fri 09:36:22 PM 33.5550 -84.5940 187° South 257 296 6,300 2,100 Climbing FlightAware ADS-B
Fri 09:36:32 PM 33.5450 -84.5950 185° South 259 298 6,600 2,100 Climbing FlightAware ADS-B
Fri 09:37:02 PM 33.5080 -84.5760 157° South 283 326 7,700 2,200 Climbing FlightAware ADS-B
Fri 09:37:32 PM 33.4760 -84.5510 147° Southeast 280 322 8,800 2,267 Climbing FlightAware ADS-B
Fri 09:37:47 PM 33.4560 -84.5480 173° South 276 318 9,400 2,182 Climbing FlightAware ADS-B
Fri 09:38:27 PM 33.4040 -84.5420 174° South 282 325 10,800 2,057 Climbing FlightAware ADS-B
Fri 09:38:57 PM 33.3660 -84.5230 157° South 299 344 11,800 1,733 Climbing FlightAware ADS-B
Fri 09:39:12 PM 33.3530 -84.5050 131° Southeast 315 362 12,100 1,091 Climbing FlightAware ADS-B
Fri 09:39:52 PM 33.3210 -84.4420 121° Southeast 345 397 12,800 975 Climbing FlightAware ADS-B
Fri 09:40:32 PM 33.2870 -84.3730 121° Southeast 373 429 13,400 1,553 Climbing FlightAware ADS-B
Fri 09:41:17 PM 33.2470 -84.2930 121° Southeast 373 429 15,000 1,906 Climbing FlightAware ADS-B
Fri 09:41:57 PM 33.2060 -84.2280 127° Southeast 376 433 16,100 1,412 Climbing FlightAware ADS-B
Fri 09:42:42 PM 33.1410 -84.1710 144° Southeast 385 443 17,000 1,271 Climbing FlightAware ADS-B
Fri 09:43:22 PM 33.0800 -84.1230 147° Southeast 394 453 17,900 1,275 Climbing FlightAware ADS-B
Fri 09:44:02 PM 33.0190 -84.0750 147° Southeast 401 461 18,700 1,341 Climbing FlightAware ADS-B
Fri 09:44:47 PM 32.9520 -84.0180 144° Southeast 404 465 19,800 1,341 Climbing FlightAware ADS-B
Fri 09:45:27 PM 32.8910 -83.9670 145° Southeast 408 470 20,600 750 Climbing FlightAware ADS-B
Fri 09:46:07 PM 32.8320 -83.9160 144° Southeast 411 473 20,800 1,059 Climbing FlightAware ADS-B
Fri 09:46:52 PM 32.7540 -83.8530 146° Southeast 420 483 22,100 1,341 Climbing FlightAware ADS-B
Fri 09:47:32 PM 32.6950 -83.8040 145° Southeast 424 488 22,700 960 Climbing FlightAware ADS-B
Fri 09:48:07 PM 32.6380 -83.7570 145° Southeast 429 494 23,300 450 Climbing FlightAware ADS-B
Fri 09:48:52 PM 32.5730 -83.7030 145° Southeast 429 494 23,300  Level FlightAware ADS-B
Fri 09:49:32 PM 32.5180 -83.6570 145° Southeast 429 494 23,300  Level FlightAware ADS-B
Fri 09:50:22 PM 32.4480 -83.5990 145° Southeast 429 494 23,300  Level FlightAware ADS-B
Fri 09:51:02 PM 32.3930 -83.5530 145° Southeast 429 494 23,300  Level FlightAware ADS-B
Fri 09:51:42 PM 32.3380 -83.5080 145° Southeast 429 494 23,300 2,025 Level FlightAware ADS-B
Fri 09:52:22 PM 32.2090 -83.4030 145° Southeast 475 547 26,000 1,906 Climbing FlightAware ADS-B
Fri 09:53:07 PM 32.1340 -83.3410 145° Southeast 475 547 26,000  Level FlightAware ADS-B
Fri 09:53:47 PM 32.0720 -83.2900 145° Southeast 475 547 26,000  Level FlightAware ADS-B
Fri 09:54:37 PM 31.9960 -83.2270 145° Southeast 475 547 26,000  Level FlightAware ADS-B
Fri 09:55:17 PM 31.9350 -83.1770 145° Southeast 475 547 26,000  Level FlightAware ADS-B
Fri 09:55:57 PM 31.8730 -83.1260 145° Southeast 475 547 26,000 2,400 Level FlightAware ADS-B
Fri 09:56:52 PM 31.7133 -83.0000 145° Southeast 487 560 29,800 2,504 Climbing Jacksonville Center
Fri 09:57:52 PM 31.5944 -82.9047 146° Southeast 487 560 30,800 850 Climbing Jacksonville Center
Fri 09:58:52 PM 31.4817 -82.8147 146° Southeast 487 560 31,500 700 Climbing Jacksonville Center
Fri 09:59:52 PM 31.3689 -82.7272 146° Southeast 487 560 32,200 650 Climbing Jacksonville Center
Fri 10:00:52 PM 31.2622 -82.6375 144° Southeast 487 560 32,800 600 Climbing Jacksonville Center
Fri 10:01:52 PM 31.1639 -82.5625 147° Southeast 481 554 33,400 600 Climbing Jacksonville Center
Fri 10:02:52 PM 31.0531 -82.4778 147° Southeast 481 554 34,000 300 Climbing Jacksonville Center
Fri 10:03:52 PM 30.9461 -82.3886 144° Southeast 481 554 34,000  Level Jacksonville Center
Fri 10:04:52 PM 30.8353 -82.3022 146° Southeast 481 554 34,000  Level Jacksonville Center
Fri 10:05:52 PM 30.7242 -82.2158 146° Southeast 487 560 34,000  Level Jacksonville Center
Fri 10:11:17 PM 30.1110 -81.7320 146° Southeast 494 568 34,000  Level FlightAware ADS-B
Fri 10:12:12 PM 30.0060 -81.6510 146° Southeast 496 571 34,000  Level FlightAware ADS-B
Fri 10:12:57 PM 29.9120 -81.5780 146° Southeast 498 573 34,000  Level FlightAware ADS-B
Fri 10:14:37 PM 29.7190 -81.4300 146° Southeast 500 575 34,000  Level FlightAware ADS-B
Fri 10:15:32 PM 29.6240 -81.3510 144° Southeast 503 579 34,000  Level FlightAware ADS-B
Fri 10:16:07 PM 29.5630 -81.2890 139° Southeast 498 573 34,000  Level FlightAware ADS-B
Fri 10:20:22 PM 29.1070 -80.8560 140° Southeast 502 578 34,000  Level FlightAware ADS-B
Fri 10:21:37 PM 28.9710 -80.7290 141° Southeast 501 577 34,000  Level FlightAware ADS-B
Fri 10:22:47 PM 28.8460 -80.6080 140° Southeast 498 573 34,000  Level FlightAware ADS-B
Fri 10:24:02 PM 28.7320 -80.4550 130° Southeast 504 580 34,000  Level FlightAware ADS-B
Fri 10:25:07 PM 28.6400 -80.3240 129° Southeast 504 580 34,000  Level FlightAware ADS-B
Fri 10:26:12 PM 28.5450 -80.1860 128° Southeast 504 580 34,000  Level FlightAware ADS-B
Fri 10:27:37 PM 28.4150 -80.0050 129° Southeast 512 589 34,000  Level FlightAware ADS-B
Fri 10:30:02 PM 28.1990 -79.7030 129° Southeast 515 593 34,000  Level FlightAware ADS-B
Fri 10:31:12 PM 28.0940 -79.5560 129° Southeast 517 595 34,000  Level FlightAware ADS-B
Fri 10:31:52 PM 28.0410 -79.4820 129° Southeast 517 595 34,000  Level FlightAware ADS-B
Fri 10:32:27 PM 27.9810 -79.3990 129° Southeast 514 592 34,000  Level FlightAware ADS-B
Fri 10:33:12 PM 27.9200 -79.3110 128° Southeast 514 592 34,000  Level FlightAware ADS-B
Fri 10:34:27 PM 27.8070 -79.1560 129° Southeast 516 594 34,000  Level FlightAware ADS-B
Fri 10:35:52 PM 27.6720 -78.9700 129° Southeast 516 594 34,000  Level FlightAware ADS-B
Fri 10:36:32 PM 27.6220 -78.8980 128° Southeast 516 594 34,000 750 Level FlightAware ADS-B
Fri 10:37:12 PM 27.5450 -78.7990 131° Southeast 512 589 35,000 706 Climbing FlightAware ADS-B
Fri 10:37:57 PM 27.4710 -78.6950 129° Southeast 519 597 35,000  Level FlightAware ADS-B
Fri 10:38:37 PM 27.4180 -78.6040 123° Southeast 520 598 35,000  Level FlightAware ADS-B
Fri 10:39:17 PM 27.3660 -78.5220 126° Southeast 521 600 35,000  Level FlightAware ADS-B
Fri 10:40:57 PM 27.2310 -78.3100 126° Southeast 521 600 35,000  Level FlightAware ADS-B
Fri 10:41:37 PM 27.1840 -78.2340 125° Southeast 521 600 35,000  Level FlightAware ADS-B
Fri 10:42:47 PM 27.0750 -78.0750 128° Southeast 518 596 35,000  Level FlightAware ADS-B
Fri 10:43:10 PM 27.0428 -78.0367 128° Southeast 516 594 35,000  Level Miami Center
Fri 10:44:11 PM 26.9581 -77.9006 125° Southeast 516 594 35,000  Level Miami Center
Fri 10:45:11 PM 26.8756 -77.7717 126° Southeast 516 594 35,000  Level Miami Center
Fri 10:46:12 PM 26.7886 -77.6453 128° Southeast 515 593 35,000  Level Miami Center
Fri 10:47:10 PM 26.7036 -77.5100 125° Southeast 514 592 35,000  Level Miami Center
Fri 10:48:10 PM 26.6100 -77.3675 126° Southeast 523 602 35,000  Level Miami Center
Fri 10:49:10 PM 26.5247 -77.2419 127° Southeast 523 602 35,000  Level Miami Center
Fri 10:50:10 PM 26.4519 -77.1325 127° Southeast 516 594 35,000  Level Miami Center
Fri 10:51:11 PM 26.3642 -76.9978 126° Southeast 516 594 35,000  Level Miami Center
Fri 10:52:10 PM 26.2808 -76.8725 127° Southeast 516 594 35,000  Level Miami Center
Fri 10:53:11 PM 26.1950 -76.7428 126° Southeast 510 587 35,000  Level Miami Center
Fri 10:54:11 PM 26.1092 -76.6181 127° Southeast 510 587 35,000  Level Miami Center
Fri 10:55:10 PM 26.0211 -76.4886 127° Southeast 510 587 35,000  Level Miami Center
Fri 10:56:11 PM 25.9394 -76.3689 127° Southeast 505 581 35,000  Level Miami Center
Fri 10:57:11 PM 25.8511 -76.2375 127° Southeast 515 593 35,000  Level Miami Center
Fri 10:58:10 PM 25.7647 -76.1133 128° Southeast 515 593 35,000  Level Miami Center
Fri 10:59:10 PM 25.6764 -75.9847 127° Southeast 515 593 35,000  Level Miami Center
Fri 11:00:10 PM 25.5878 -75.8564 127° Southeast 515 593 35,000  Level Miami Center
Fri 11:01:11 PM 25.5075 -75.7328 126° Southeast 510 587 35,000  Level Miami Center
Fri 11:02:10 PM 25.4186 -75.6069 128° Southeast 510 587 35,000  Level Miami Center
Fri 11:03:13 PM 25.3275 -75.4792 128° Southeast 510 587 35,000  Level Miami Center
Fri 11:04:10 PM 25.2428 -75.3561 127° Southeast 510 587 35,000  Level Miami Center
Fri 11:05:13 PM 25.1578 -75.2286 126° Southeast 516 594 35,000  Level Miami Center
Fri 11:06:10 PM 25.0708 -75.1058 128° Southeast 516 594 35,000  Level Miami Center
Fri 11:07:11 PM 24.9856 -74.9833 128° Southeast 509 586 35,000  Level Miami Center
Fri 11:08:10 PM 24.8961 -74.8542 127° Southeast 514 592 35,000  Level Miami Center
Fri 11:09:10 PM 24.8089 -74.7319 128° Southeast 509 586 35,000  Level Miami Center
Fri 11:10:12 PM 24.7128 -74.5964 128° Southeast 509 586 35,000  Level Miami Center
Fri 11:11:13 PM 24.6250 -74.4722 128° Southeast 509 586 35,000  Level Miami Center
Fri 11:12:10 PM 24.5375 -74.3483 128° Southeast 509 586 35,000  Level Miami Center
Fri 11:13:10 PM 24.4494 -74.2247 128° Southeast 509 586 35,000  Level Miami Center
Fri 11:14:12 PM 24.3617 -74.1011 128° Southeast 509 586 35,000  Level Miami Center
Fri 11:15:11 PM 24.2736 -73.9775 128° Southeast 514 592 35,000  Level Miami Center
Fri 11:16:10 PM 24.1856 -73.8544 128° Southeast 514 592 35,000  Level Miami Center
Fri 11:17:10 PM 24.0953 -73.7314 129° Southeast 514 592 35,000  Level Miami Center
Fri 11:18:11 PM 24.0069 -73.6064 128° Southeast 514 592 35,000  Level Miami Center
Fri 11:19:10 PM 23.9164 -73.4836 129° Southeast 514 592 35,000  Level Miami Center
Fri 11:20:10 PM 23.8300 -73.3589 127° Southeast 514 592 35,000  Level Miami Center
Fri 11:21:10 PM 23.7394 -73.2389 129° Southeast 514 592 35,000  Level Miami Center
Fri 11:22:11 PM 23.6528 -73.1164 128° Southeast 509 586 35,000  Level Miami Center
Fri 11:23:10 PM 23.5661 -72.9922 127° Southeast 509 586 35,000  Level Miami Center
Fri 11:24:12 PM 23.4711 -72.8706 130° Southeast 518 596 35,000  Level Miami Center
Fri 11:25:12 PM 23.3883 -72.7486 126° Southeast 512 589 35,000  Level Miami Center
Fri 11:26:10 PM 23.2972 -72.6228 128° Southeast 512 589 35,000  Level Miami Center
Fri 11:27:11 PM 23.2061 -72.5039 130° Southeast 517 595 35,000  Level Miami Center
Fri 11:28:11 PM 23.1106 -72.3806 130° Southeast 523 602 35,000  Level Miami Center
Fri 11:29:12 PM 23.0275 -72.2594 127° Southeast 518 596 35,000  Level Miami Center
Fri 11:30:11 PM 22.9339 -72.1389 130° Southeast 512 589 35,000  Level Miami Center
Fri 11:31:11 PM 22.8467 -72.0136 127° Southeast 512 589 35,000  Level Miami Center
Fri 11:32:12 PM 22.7569 -71.8908 128° Southeast 517 595 35,000  Level Miami Center
Fri 11:33:11 PM 22.6653 -71.7708 130° Southeast 522 601 35,000  Level Miami Center
Fri 11:34:12 PM 22.5844 -71.6617 129° Southeast 517 595 35,000  Level Miami Center
Fri 11:35:10 PM 22.4925 -71.5417 130° Southeast 517 595 35,000  Level Miami Center
Fri 11:36:11 PM 22.4006 -71.4197 129° Southeast 517 595 35,000  Level Miami Center
Fri 11:37:12 PM 22.3106 -71.2981 129° Southeast 517 595 35,000  Level Miami Center
Fri 11:38:12 PM 22.2206 -71.1786 129° Southeast 522 601 35,000  Level Miami Center
Fri 11:39:10 PM 22.1306 -71.0569 129° Southeast 522 601 35,000  Level Miami Center
Fri 11:40:10 PM 22.0383 -70.9381 130° Southeast 527 606 35,000  Level Miami Center
Fri 11:41:10 PM 21.9458 -70.8169 129° Southeast 527 606 35,000  Level Miami Center
Fri 11:42:12 PM 21.8556 -70.6981 129° Southeast 522 601 35,000  Level Miami Center
Fri 11:43:10 PM 21.7631 -70.5753 129° Southeast 522 601 35,000  Level Miami Center
Fri 11:44:11 PM 21.6706 -70.4569 130° Southeast 522 601 35,000  Level Miami Center
Fri 11:45:12 PM 21.5758 -70.3364 130° Southeast 522 601 35,000  Level Miami Center
Fri 11:46:12 PM 21.4853 -70.2183 129° Southeast 522 601 35,000  Level Miami Center
Fri 11:47:11 PM 21.3947 -70.1006 130° Southeast 522 601 35,000  Level Miami Center
Fri 11:48:10 PM 21.2908 -69.9700 130° Southeast 522 601 35,000  Level Miami Center
Fri 11:49:12 PM 21.2089 -69.8608 129° Southeast 522 601 35,000  Level Miami Center
Fri 11:54:42 PM 20.6930 -69.1900 129° Southeast 517 595 35,000  Level FlightAware ADS-B
Fri 11:55:27 PM 20.6230 -69.1000 130° Southeast 517 595 35,000  Level FlightAware ADS-B
Fri 11:56:07 PM 20.5670 -69.0290 130° Southeast 516 594 35,000  Level FlightAware ADS-B
Fri 11:56:52 PM 20.4930 -68.9340 130° Southeast 515 593 35,000  Level FlightAware ADS-B
Fri 11:57:32 PM 20.4340 -68.8600 130° Southeast 514 592 35,000  Level FlightAware ADS-B
Fri 11:58:17 PM 20.3640 -68.7710 130° Southeast 514 592 35,000  Level FlightAware ADS-B
Fri 11:58:57 PM 20.3030 -68.6930 130° Southeast 513 590 35,000  Level FlightAware ADS-B
Fri 11:59:37 PM 20.2410 -68.6160 131° Southeast 513 590 35,000  Level FlightAware ADS-B
Sat 12:00:22 AM 20.1590 -68.5400 139° Southeast 510 587 35,000  Level FlightAware ADS-B
Sat 12:01:02 AM 20.0790 -68.4870 148° Southeast 507 583 35,000  Level FlightAware ADS-B
Sat 12:01:42 AM 19.9970 -68.4360 150° Southeast 507 583 35,000  Level FlightAware ADS-B
Sat 12:02:27 AM 19.9090 -68.3810 150° Southeast 506 582 35,000  Level FlightAware ADS-B
Sat 12:03:07 AM 19.8270 -68.3300 150° Southeast 505 581 35,000  Level FlightAware ADS-B
Sat 12:03:52 AM 19.7350 -68.2720 149° Southeast 507 583 35,000  Level FlightAware ADS-B
Sat 12:04:32 AM 19.6580 -68.2200 148° Southeast 506 582 35,000  Level FlightAware ADS-B
Sat 12:05:12 AM 19.5790 -68.1670 148° Southeast 506 582 35,000  Level FlightAware ADS-B
Sat 12:05:57 AM 19.4870 -68.1060 148° Southeast 506 582 35,000  Level FlightAware ADS-B
Sat 12:06:37 AM 19.4070 -68.0540 148° Southeast 506 582 35,000  Level FlightAware ADS-B
Sat 12:07:22 AM 19.3190 -67.9950 148° Southeast 505 581 35,000  Level FlightAware ADS-B
Sat 12:08:02 AM 19.2400 -67.9440 149° Southeast 505 581 35,000  Level FlightAware ADS-B
Sat 12:08:47 AM 19.1520 -67.8860 148° Southeast 505 581 35,000  Level FlightAware ADS-B
Sat 12:09:27 AM 19.0690 -67.8310 148° Southeast 505 581 35,000  Level FlightAware ADS-B
Sat 12:10:07 AM 18.9930 -67.7810 148° Southeast 505 581 35,000  Level FlightAware ADS-B
Sat 12:10:52 AM 18.9010 -67.7210 148° Southeast 505 581 35,000  Level FlightAware ADS-B
Sat 12:11:32 AM 18.8220 -67.6700 149° Southeast 505 581 35,000  Level FlightAware ADS-B
Sat 12:12:17 AM 18.7330 -67.6120 148° Southeast 505 581 35,000  Level FlightAware ADS-B
Sat 12:12:57 AM 18.6510 -67.5580 148° Southeast 503 579 35,000  Level FlightAware ADS-B
Sat 12:13:42 AM 18.5630 -67.5010 148° Southeast 503 579 35,000  Level FlightAware ADS-B
Sat 12:14:22 AM 18.4840 -67.4490 148° Southeast 503 579 35,000  Level FlightAware ADS-B
Sat 12:15:02 AM 18.4040 -67.3980 149° Southeast 503 579 35,000  Level FlightAware ADS-B
Sat 12:15:42 AM 18.3240 -67.3450 148° Southeast 504 580 35,000  Level FlightAware ADS-B
Sat 12:16:32 AM 18.2240 -67.2800 148° Southeast 505 581 35,000  Level FlightAware ADS-B
Sat 12:17:12 AM 18.1430 -67.2280 149° Southeast 505 581 35,000  Level FlightAware ADS-B
Sat 12:17:52 AM 18.0680 -67.1800 149° Southeast 505 581 35,000  Level FlightAware ADS-B
Sat 12:18:37 AM 17.9760 -67.1200 148° Southeast 507 583 35,000  Level FlightAware ADS-B
Sat 12:19:17 AM 17.8940 -67.0670 148° Southeast 507 583 35,000  Level FlightAware ADS-B
Sat 12:19:57 AM 17.8160 -67.0160 148° Southeast 506 582 35,000  Level FlightAware ADS-B
Sat 12:20:42 AM 17.7280 -66.9600 149° Southeast 505 581 35,000  Level FlightAware ADS-B
Sat 12:21:22 AM 17.6440 -66.9060 149° Southeast 503 579 35,000  Level FlightAware ADS-B
Sat 12:22:07 AM 17.5570 -66.8500 148° Southeast 504 580 35,000  Level FlightAware ADS-B
Sat 12:22:47 AM 17.4770 -66.7980 148° Southeast 503 579 35,000  Level FlightAware ADS-B
Sat 12:23:27 AM 17.3990 -66.7490 149° Southeast 501 577 35,000  Level FlightAware ADS-B
Sat 12:24:12 AM 17.3060 -66.6890 148° Southeast 500 575 35,000  Level FlightAware ADS-B
Sat 12:24:52 AM 17.2310 -66.6410 149° Southeast 500 575 35,000  Level FlightAware ADS-B
Sat 12:25:32 AM 17.1560 -66.5930 149° Southeast 500 575 35,000  Level FlightAware ADS-B
Sat 12:26:17 AM 17.0610 -66.5330 149° Southeast 500 575 35,000  Level FlightAware ADS-B
Sat 12:27:02 AM 16.9710 -66.4750 148° Southeast 500 575 35,000  Level FlightAware ADS-B
Sat 12:27:47 AM 16.8850 -66.4200 149° Southeast 500 575 35,000  Level FlightAware ADS-B
Sat 12:28:47 AM 16.7700 -66.3460 148° Southeast 499 574 35,000  Level FlightAware ADS-B
Sat 12:29:27 AM 16.7030 -66.3030 148° Southeast 499 574 35,000  Level FlightAware ADS-B
Sat 12:30:17 AM 16.6200 -66.2480 148° Southeast 499 574 35,000  Level FlightAware ADS-B
Sat 12:30:57 AM 16.5530 -66.2050 148° Southeast 499 574 35,000  Level FlightAware ADS-B
Sat 12:31:37 AM 16.4330 -66.1330 150° Southeast 495 570 35,000  Level FlightAware ADS-B
Sat 12:32:22 AM 16.3540 -66.0820 148° Southeast 495 570 35,000  Level FlightAware ADS-B
Sat 12:33:02 AM 16.2880 -66.0390 148° Southeast 495 570 35,000  Level FlightAware ADS-B
Sat 12:33:42 AM 16.2220 -65.9960 148° Southeast 495 570 35,000  Level FlightAware ADS-B
Sat 12:34:22 AM 16.1560 -65.9530 148° Southeast 495 570 35,000  Level FlightAware ADS-B
Sat 12:35:12 AM 16.0730 -65.8990 148° Southeast 495 570 35,000  Level FlightAware ADS-B
Sat 12:35:52 AM 16.0070 -65.8560 148° Southeast 495 570 35,000  Level FlightAware ADS-B
Sat 12:36:32 AM 15.9410 -65.8130 148° Southeast 495 570 35,000  Level FlightAware ADS-B
Sat 12:37:12 AM 15.8750 -65.7700 148° Southeast 495 570 35,000  Level FlightAware ADS-B
Sat 12:37:52 AM 15.8090 -65.7270 148° Southeast 495 570 35,000  Level FlightAware ADS-B
Sat 12:38:42 AM 15.7270 -65.6740 148° Southeast 495 570 35,000  Level FlightAware ADS-B
Sat 12:39:22 AM 15.6610 -65.6310 148° Southeast 495 570 35,000  Level FlightAware ADS-B
Sat 12:40:02 AM 15.5950 -65.5880 148° Southeast 495 570 35,000  Level FlightAware ADS-B
Sat 12:40:42 AM 15.5290 -65.5450 148° Southeast 495 570 35,000  Level FlightAware ADS-B
Sat 12:41:22 AM 15.4630 -65.5020 148° Southeast 495 570 35,000  Level FlightAware ADS-B
Sat 12:44:17 AM 14.9730 -65.2640 155° Southeast 458 527 35,000  Level FlightAware ADS-B
Sat 12:44:57 AM 14.8940 -65.2450 167° South 459 528 35,000  Level FlightAware ADS-B
Sat 12:45:37 AM 14.8240 -65.2290 168° South 459 528 35,000  Level FlightAware ADS-B
Sat 12:45:47 AM 14.9610 -65.2610 347° North 35,000  Level FlightAware ADS-B
Sat 12:46:07 AM 14.7550 -65.1990 164° South 463 533 35,000  Level FlightAware ADS-B
Sat 12:46:52 AM 14.6720 -65.1710 162° South 463 533 35,000  Level FlightAware ADS-B
Sat 12:47:32 AM 14.7550 -65.1990 342° North 35,000  Level FlightAware ADS-B
Sat 12:48:02 AM 14.5100 -65.1170 162° South 460 529 35,000  Level FlightAware ADS-B
Sat 12:48:32 AM 14.4490 -65.0970 162° South 459 528 35,000  Level FlightAware ADS-B
Sat 12:49:22 AM 14.3530 -65.0650 162° South 459 528 35,000  Level FlightAware ADS-B
Sat 12:50:07 AM 14.2600 -65.0350 163° South 457 526 35,000  Level FlightAware ADS-B
Sat 12:50:47 AM 14.1910 -65.0110 161° South 457 526 35,000  Level FlightAware ADS-B
Sat 12:51:27 AM 14.1040 -64.9830 163° South 456 525 35,000  Level FlightAware ADS-B
Sat 12:52:07 AM 14.0160 -64.9550 163° South 456 525 35,000  Level FlightAware ADS-B
Sat 12:52:52 AM 13.9340 -64.9270 162° South 456 525 35,000  Level FlightAware ADS-B
Sat 12:53:22 AM 14.0160 -64.9550 342° North 35,000  Level FlightAware ADS-B
Sat 12:53:47 AM 13.8180 -64.8990 165° South 455 524 35,000  Level FlightAware ADS-B
Sat 12:54:32 AM 13.7360 -64.8720 162° South 455 524 35,000  Level FlightAware ADS-B
Sat 12:55:27 AM 13.6080 -64.8310 163° South 455 524 35,000  Level FlightAware ADS-B
Sat 12:56:12 AM 13.5280 -64.8040 162° South 455 524 35,000  Level FlightAware ADS-B
Sat 12:56:52 AM 13.4600 -64.7820 163° South 455 524 35,000  Level FlightAware ADS-B
Sat 12:57:32 AM 13.3920 -64.7590 162° South 455 524 35,000  Level FlightAware ADS-B
Sat 12:58:17 AM 13.2700 -64.7240 164° South 457 526 35,000  Level FlightAware ADS-B
Sat 12:58:47 AM 13.2030 -64.7030 163° South 456 525 35,000  Level FlightAware ADS-B
Sat 12:59:32 AM 13.1260 -64.6780 162° South 456 525 35,000  Level FlightAware ADS-B
Sat 01:00:22 AM 13.0400 -64.6490 162° South 456 525 35,000  Level FlightAware ADS-B
Sat 01:00:27 AM 13.1720 -64.6930 342° North 35,000  Level FlightAware ADS-B
Sat 01:01:02 AM 12.9310 -64.6160 163° South 457 526 35,000  Level FlightAware ADS-B
Sat 01:01:47 AM 12.8440 -64.5870 162° South 457 526 35,000  Level FlightAware ADS-B
Sat 01:02:27 AM 12.7560 -64.5580 162° South 456 525 35,000  Level FlightAware ADS-B
Sat 01:03:07 AM 12.6860 -64.5350 162° South 456 525 35,000  Level FlightAware ADS-B
Sat 01:04:02 AM 12.5730 -64.4990 163° South 455 524 35,000  Level FlightAware ADS-B
Sat 01:05:07 AM 12.4420 -64.4560 162° South 455 524 35,000  Level FlightAware ADS-B
Sat 01:05:52 AM 12.3580 -64.4290 163° South 454 522 35,000  Level FlightAware ADS-B
Sat 01:06:32 AM 12.2900 -64.4060 162° South 454 522 35,000  Level FlightAware ADS-B
Sat 01:07:37 AM 12.1460 -64.3610 163° South 455 524 35,000  Level FlightAware ADS-B
Sat 01:08:17 AM 12.0600 -64.3340 163° South 35,000  Level FlightAware ADS-B
Sat 01:08:52 AM 11.9840 -64.3100 163° South 455 524 35,000  Level FlightAware ADS-B
Sat 01:09:52 AM 11.8740 -64.2750 163° South 455 524 35,000  Level FlightAware ADS-B
Sat 01:10:32 AM 11.8060 -64.2520 162° South 455 524 35,000  Level FlightAware ADS-B
Sat 01:11:22 AM 11.7210 -64.2240 162° South 455 524 35,000  Level FlightAware ADS-B
Sat 01:12:02 AM 11.6750 -64.2130 167° South 35,000  Level FlightAware ADS-B
Sat 01:12:27 AM 11.5910 -64.1860 163° South 451 519 35,000  Level FlightAware ADS-B
Sat 01:13:02 AM 11.4800 -64.1510 163° South 451 519 35,000  Level FlightAware ADS-B
Sat 01:13:52 AM 11.3830 -64.1200 163° South 452 520 35,000  Level FlightAware ADS-B
Sat 01:14:37 AM 11.3040 -64.0940 162° South 452 520 35,000  Level FlightAware ADS-B
Sat 01:15:17 AM 11.2360 -64.0720 162° South 452 520 35,000  Level FlightAware ADS-B
Sat 01:15:57 AM 11.1680 -64.0490 162° South 452 520 35,000  Level FlightAware ADS-B
Sat 01:16:37 AM 11.1010 -64.0270 162° South 452 520 35,000  Level FlightAware ADS-B
Sat 01:17:17 AM 11.0330 -64.0040 162° South 452 520 35,000  Level FlightAware ADS-B
Sat 01:17:57 AM 10.9660 -63.9820 162° South 452 520 35,000  Level FlightAware ADS-B
Sat 01:18:47 AM 10.8810 -63.9540 162° South 452 520 35,000  Level FlightAware ADS-B
Sat 01:19:27 AM 10.8130 -63.9320 162° South 452 520 35,000  Level FlightAware ADS-B
Sat 01:20:07 AM 10.7460 -63.9090 161° South 452 520 35,000  Level FlightAware ADS-B
Sat 01:20:47 AM 10.6780 -63.8870 162° South 452 520 35,000  Level FlightAware ADS-B
Sat 01:21:37 AM 10.5940 -63.8590 162° South 452 520 35,000  Level FlightAware ADS-B
Sat 01:22:17 AM 10.5260 -63.8370 162° South 452 520 35,000  Level FlightAware ADS-B
Sat 01:22:57 AM 10.4580 -63.8140 162° South 452 520 35,000  Level FlightAware ADS-B
Sat 01:23:37 AM 10.3910 -63.7920 162° South 452 520 35,000 20 Level FlightAware ADS-B
Sat 01:26:00 AM 10.1278 -63.6305 149° Southeast  Level Estimated
Sat 01:27:00 AM 10.0173 -63.5629 149° Southeast  Level Estimated
Sat 01:28:00 AM 9.9068 -63.4952 149° Southeast  Level Estimated
Sat 01:29:00 AM 9.7964 -63.4276 149° Southeast  Level Estimated
Sat 01:30:00 AM 9.6859 -63.3601 149° Southeast  Level Estimated
Sat 01:31:00 AM 9.5753 -63.2926 149° Southeast  Level Estimated
Sat 01:32:00 AM 9.4648 -63.2252 149° Southeast  Level Estimated
Sat 01:33:00 AM 9.3543 -63.1577 149° Southeast  Level Estimated
Sat 01:34:00 AM 9.2437 -63.0904 149° Southeast  Level Estimated
Sat 01:35:00 AM 9.1332 -63.0231 149° Southeast  Level Estimated
Sat 01:36:00 AM 9.0226 -62.9558 149° Southeast  Level Estimated
Sat 01:37:00 AM 8.9120 -62.8885 149° Southeast  Level Estimated
Sat 01:38:00 AM 8.8014 -62.8214 149° Southeast  Level Estimated
Sat 01:39:00 AM 8.6908 -62.7542 149° Southeast  Level Estimated
Sat 01:40:00 AM 8.5801 -62.6871 149° Southeast  Level Estimated
Sat 01:41:00 AM 8.4695 -62.6200 149° Southeast  Level Estimated
Sat 01:42:00 AM 8.3588 -62.5530 149° Southeast  Level Estimated
Sat 01:43:00 AM 8.2482 -62.4860 149° Southeast  Level Estimated
Sat 01:44:00 AM 8.1375 -62.4190 149° Southeast  Level Estimated
Sat 01:45:00 AM 8.0268 -62.3521 149° Southeast  Level Estimated
Sat 01:46:00 AM 7.9162 -62.2852 149° Southeast  Level Estimated
Sat 01:47:00 AM 7.8054 -62.2183 149° Southeast  Level Estimated
Sat 01:48:00 AM 7.6947 -62.1515 149° Southeast  Level Estimated
Sat 01:49:00 AM 7.5840 -62.0847 149° Southeast  Level Estimated
Sat 01:50:00 AM 7.4733 -62.0180 149° Southeast  Level Estimated
Sat 01:51:00 AM 7.3625 -61.9512 149° Southeast  Level Estimated
Sat 01:52:00 AM 7.2517 -61.8846 149° Southeast  Level Estimated
Sat 01:53:00 AM 7.1410 -61.8179 149° Southeast  Level Estimated
Sat 01:54:00 AM 7.0302 -61.7513 149° Southeast  Level Estimated
Sat 01:55:00 AM 6.9194 -61.6847 149° Southeast  Level Estimated
Sat 01:56:00 AM 6.8086 -61.6181 149° Southeast  Level Estimated
Sat 01:57:00 AM 6.6978 -61.5516 149° Southeast  Level Estimated
Sat 01:58:00 AM 6.5870 -61.4851 149° Southeast  Level Estimated
Sat 01:59:00 AM 6.4762 -61.4187 149° Southeast  Level Estimated
Sat 02:00:00 AM 6.3654 -61.3522 149° Southeast  Level Estimated
Sat 02:01:00 AM 6.2545 -61.2858 149° Southeast  Level Estimated
Sat 02:02:00 AM 6.1437 -61.2195 149° Southeast  Level Estimated
Sat 02:03:00 AM 6.0328 -61.1531 149° Southeast  Level Estimated
Sat 02:04:00 AM 5.9220 -61.0868 149° Southeast  Level Estimated
Sat 02:05:00 AM 5.8111 -61.0205 149° Southeast  Level Estimated
Sat 02:06:00 AM 5.7002 -60.9542 149° Southeast  Level Estimated
Sat 02:07:00 AM 5.5894 -60.8880 149° Southeast  Level Estimated
Sat 02:08:00 AM 5.4785 -60.8217 149° Southeast  Level Estimated
Sat 02:09:00 AM 5.3676 -60.7555 149° Southeast  Level Estimated
Sat 02:10:00 AM 5.2566 -60.6894 149° Southeast  Level Estimated
Sat 02:11:00 AM 5.1457 -60.6232 149° Southeast  Level Estimated
Sat 02:12:00 AM 5.0348 -60.5571 149° Southeast  Level Estimated
Sat 02:13:00 AM 4.9239 -60.4910 149° Southeast  Level Estimated
Sat 02:14:00 AM 4.8130 -60.4249 149° Southeast  Level Estimated
Sat 02:15:00 AM 4.7020 -60.3588 149° Southeast  Level Estimated
Sat 02:16:00 AM 4.5911 -60.2928 149° Southeast  Level Estimated
Sat 02:17:00 AM 4.4801 -60.2268 149° Southeast  Level Estimated
Sat 02:18:00 AM 4.3692 -60.1608 149° Southeast  Level Estimated
Sat 02:19:00 AM 4.2582 -60.0948 149° Southeast  Level Estimated
Sat 02:20:00 AM 4.1472 -60.0289 149° Southeast  Level Estimated
Sat 02:21:00 AM 4.0363 -59.9629 149° Southeast  Level Estimated
Sat 02:22:00 AM 3.9253 -59.8970 149° Southeast  Level Estimated
Sat 02:23:00 AM 3.8143 -59.8311 149° Southeast  Level Estimated
Sat 02:24:00 AM 3.7033 -59.7652 149° Southeast  Level Estimated
Sat 02:25:00 AM 3.5923 -59.6993 149° Southeast  Level Estimated
Sat 02:26:00 AM 3.4813 -59.6335 149° Southeast  Level Estimated
Sat 02:27:00 AM 3.3703 -59.5676 149° Southeast  Level Estimated
Sat 02:28:00 AM 3.2593 -59.5018 149° Southeast  Level Estimated
Sat 02:29:00 AM 3.1483 -59.4360 149° Southeast  Level Estimated
Sat 02:30:00 AM 3.0372 -59.3702 149° Southeast  Level Estimated
Sat 02:31:00 AM 2.9262 -59.3044 149° Southeast  Level Estimated
Sat 02:32:00 AM 2.8152 -59.2387 149° Southeast  Level Estimated
Sat 02:33:00 AM 2.7042 -59.1729 149° Southeast  Level Estimated
Sat 02:34:00 AM 2.5931 -59.1072 149° Southeast  Level Estimated
Sat 02:35:00 AM 2.4821 -59.0414 149° Southeast  Level Estimated
Sat 02:36:00 AM 2.3710 -58.9757 149° Southeast  Level Estimated
Sat 02:37:00 AM 2.2600 -58.9100 149° Southeast  Level Estimated
Sat 02:38:00 AM 2.1490 -58.8443 149° Southeast  Level Estimated
Sat 02:39:00 AM 2.0379 -58.7786 149° Southeast  Level Estimated
Sat 02:40:00 AM 1.9269 -58.7129 149° Southeast  Level Estimated
Sat 02:41:00 AM 1.8158 -58.6473 149° Southeast  Level Estimated
Sat 02:42:00 AM 1.7047 -58.5816 149° Southeast  Level Estimated
Sat 02:43:00 AM 1.5937 -58.5159 149° Southeast  Level Estimated
Sat 02:44:00 AM 1.4826 -58.4503 149° Southeast  Level Estimated
Sat 02:45:00 AM 1.3716 -58.3846 149° Southeast  Level Estimated
Sat 02:46:00 AM 1.2605 -58.3190 149° Southeast  Level Estimated
Sat 02:47:00 AM 1.1494 -58.2533 149° Southeast  Level Estimated
Sat 02:48:00 AM 1.0384 -58.1877 149° Southeast  Level Estimated
Sat 02:49:00 AM 0.9273 -58.1221 149° Southeast  Level Estimated
Sat 02:50:00 AM 0.8162 -58.0565 149° Southeast  Level Estimated
Sat 02:51:00 AM 0.7052 -57.9909 149° Southeast  Level Estimated
Sat 02:52:00 AM 0.5941 -57.9253 149° Southeast  Level Estimated
Sat 02:53:00 AM 0.4830 -57.8596 149° Southeast  Level Estimated
Sat 02:54:00 AM 0.3720 -57.7940 149° Southeast  Level Estimated
Sat 02:55:00 AM 0.2609 -57.7284 149° Southeast  Level Estimated
Sat 02:56:00 AM 0.1498 -57.6628 149° Southeast  Level Estimated
Sat 02:57:00 AM 0.0387 -57.5972 149° Southeast  Level Estimated
Sat 02:58:00 AM -0.0723 -57.5316 149° Southeast  Level Estimated
Sat 02:59:00 AM -0.1834 -57.4660 149° Southeast  Level Estimated
Sat 03:00:00 AM -0.2945 -57.4004 149° Southeast  Level Estimated
Sat 03:00:47 AM -1.1290 -59.7510 149° Southeast 479 551 37,000  Level FlightAware ADS-B
Sat 03:01:00 AM -0.4055 -57.3348 149° Southeast  Level Estimated
Sat 03:01:27 AM -1.2160 -59.7690 192° South 480 552 37,000  Level FlightAware ADS-B
Sat 03:02:07 AM -1.3030 -59.7860 191° South 480 552 37,000  Level FlightAware ADS-B
Sat 03:02:52 AM -1.4050 -59.8070 192° South 479 551 37,000  Level FlightAware ADS-B
Sat 03:03:32 AM -1.4920 -59.8200 188° South 477 549 37,000  Level FlightAware ADS-B
Sat 03:04:12 AM -1.5770 -59.8010 167° South 467 537 37,000  Level FlightAware ADS-B
Sat 03:04:57 AM -1.6540 -59.7470 145° Southeast 464 534 37,000  Level FlightAware ADS-B
Sat 03:05:42 AM -1.7300 -59.6900 143° Southeast 463 533 37,000  Level FlightAware ADS-B
Sat 03:06:22 AM -1.8020 -59.6350 143° Southeast 464 534 37,000  Level FlightAware ADS-B
Sat 03:07:02 AM -1.8700 -59.5850 144° Southeast 462 532 37,000  Level FlightAware ADS-B
Sat 03:07:47 AM -1.9450 -59.5280 143° Southeast 462 532 37,000  Level FlightAware ADS-B
Sat 03:08:27 AM -2.0160 -59.4790 145° Southeast 463 533 37,000  Level FlightAware ADS-B
Sat 03:09:12 AM -2.0990 -59.4240 146° Southeast 462 532 37,000  Level FlightAware ADS-B
Sat 03:09:52 AM -2.1710 -59.3750 146° Southeast 464 534 37,000  Level FlightAware ADS-B
Sat 03:10:37 AM -2.2490 -59.3210 145° Southeast 464 534 37,000  Level FlightAware ADS-B
Sat 03:11:17 AM -2.3200 -59.2730 146° Southeast 464 534 37,000  Level FlightAware ADS-B
Sat 03:11:57 AM -2.3900 -59.2250 146° Southeast 463 533 37,000  Level FlightAware ADS-B
Sat 03:12:37 AM -2.4600 -59.1760 145° Southeast 463 533 37,000  Level FlightAware ADS-B
Sat 03:13:22 AM -2.5420 -59.1210 146° Southeast 463 533 37,000  Level FlightAware ADS-B
Sat 03:14:02 AM -2.6130 -59.0720 145° Southeast 463 533 37,000  Level FlightAware ADS-B
Sat 03:14:42 AM -2.6800 -59.0260 146° Southeast 462 532 37,000  Level FlightAware ADS-B
Sat 03:15:27 AM -2.7610 -58.9710 146° Southeast 461 531 37,000  Level FlightAware ADS-B
Sat 03:16:07 AM -2.8290 -58.9240 145° Southeast 461 531 37,000  Level FlightAware ADS-B
Sat 03:16:52 AM -2.9020 -58.8730 145° Southeast 461 531 37,000  Level FlightAware ADS-B
Sat 03:17:32 AM -2.9620 -58.8310 145° Southeast 461 531 37,000  Level FlightAware ADS-B
Sat 03:18:12 AM -3.0210 -58.7900 145° Southeast 461 531 37,000  Level FlightAware ADS-B
Sat 03:19:02 AM -3.0950 -58.7380 145° Southeast 461 531 37,000  Level FlightAware ADS-B
Sat 03:19:42 AM -3.1550 -58.6960 145° Southeast 461 531 37,000  Level FlightAware ADS-B
Sat 03:20:22 AM -3.2140 -58.6540 145° Southeast 461 531 37,000  Level FlightAware ADS-B
Sat 03:21:02 AM -3.2730 -58.6130 145° Southeast 461 531 37,000  Level FlightAware ADS-B
Sat 03:21:42 AM -3.3330 -58.5710 145° Southeast 461 531 37,000  Level FlightAware ADS-B
Sat 03:22:32 AM -3.4070 -58.5190 145° Southeast 461 531 37,000  Level FlightAware ADS-B
Sat 03:23:02 AM -3.4520 -58.4880 145° Southeast 461 531 37,000  Level FlightAware ADS-B
Sat 03:23:52 AM -3.5260 -58.4360 145° Southeast 461 531 37,000  Level FlightAware ADS-B
Sat 03:24:32 AM -3.5850 -58.3940 145° Southeast 461 531 37,000  Level FlightAware ADS-B
Sat 03:25:12 AM -3.6450 -58.3520 145° Southeast 461 531 37,000  Level FlightAware ADS-B
Sat 03:25:52 AM -3.7040 -58.3110 145° Southeast 461 531 37,000  Level FlightAware ADS-B
Sat 03:28:00 AM -3.9167 -58.1361 141° Southeast  Level Estimated
Sat 03:29:00 AM -4.0165 -58.0540 141° Southeast  Level Estimated
Sat 03:30:00 AM -4.1162 -57.9720 141° Southeast  Level Estimated
Sat 03:31:00 AM -4.2159 -57.8899 141° Southeast  Level Estimated
Sat 03:32:00 AM -4.3156 -57.8078 141° Southeast  Level Estimated
Sat 03:33:00 AM -4.4152 -57.7257 141° Southeast  Level Estimated
Sat 03:34:00 AM -4.5149 -57.6435 141° Southeast  Level Estimated
Sat 03:35:00 AM -4.6146 -57.5613 141° Southeast  Level Estimated
Sat 03:36:00 AM -4.7142 -57.4791 141° Southeast  Level Estimated
Sat 03:37:00 AM -4.8139 -57.3969 141° Southeast  Level Estimated
Sat 03:38:00 AM -4.9135 -57.3147 141° Southeast  Level Estimated
Sat 03:39:00 AM -5.0131 -57.2324 141° Southeast  Level Estimated
Sat 03:40:00 AM -5.1127 -57.1501 141° Southeast  Level Estimated
Sat 03:41:00 AM -5.2123 -57.0678 141° Southeast  Level Estimated
Sat 03:42:00 AM -5.3119 -56.9855 141° Southeast  Level Estimated
Sat 03:43:00 AM -5.4115 -56.9031 141° Southeast  Level Estimated
Sat 03:44:00 AM -5.5111 -56.8207 141° Southeast  Level Estimated
Sat 03:45:00 AM -5.6106 -56.7383 141° Southeast  Level Estimated
Sat 03:46:00 AM -5.7102 -56.6559 141° Southeast  Level Estimated
Sat 03:47:00 AM -5.8097 -56.5734 141° Southeast  Level Estimated
Sat 03:48:00 AM -5.9092 -56.4909 140° Southeast  Level Estimated
Sat 03:49:00 AM -6.0087 -56.4083 140° Southeast  Level Estimated
Sat 03:50:00 AM -6.1083 -56.3258 140° Southeast  Level Estimated
Sat 03:51:00 AM -6.2077 -56.2432 140° Southeast  Level Estimated
Sat 03:52:00 AM -6.3072 -56.1605 140° Southeast  Level Estimated
Sat 03:53:00 AM -6.4067 -56.0779 140° Southeast  Level Estimated
Sat 03:54:00 AM -6.5061 -55.9952 140° Southeast  Level Estimated
Sat 03:55:00 AM -6.6055 -55.9124 140° Southeast  Level Estimated
Sat 03:56:00 AM -6.7050 -55.8297 140° Southeast  Level Estimated
Sat 03:57:00 AM -6.8044 -55.7469 140° Southeast  Level Estimated
Sat 03:58:00 AM -6.9038 -55.6641 140° Southeast  Level Estimated
Sat 03:59:00 AM -7.0031 -55.5812 140° Southeast  Level Estimated
Sat 04:00:00 AM -7.1025 -55.4983 140° Southeast  Level Estimated
Sat 04:01:00 AM -7.2019 -55.4154 140° Southeast  Level Estimated
Sat 04:02:00 AM -7.3012 -55.3324 140° Southeast  Level Estimated
Sat 04:03:00 AM -7.4005 -55.2494 140° Southeast  Level Estimated
Sat 04:04:00 AM -7.4998 -55.1664 140° Southeast  Level Estimated
Sat 04:05:00 AM -7.5991 -55.0833 140° Southeast  Level Estimated
Sat 04:06:00 AM -7.6984 -55.0002 140° Southeast  Level Estimated
Sat 04:07:00 AM -7.7976 -54.9170 140° Southeast  Level Estimated
Sat 04:08:00 AM -7.8969 -54.8338 140° Southeast  Level Estimated
Sat 04:09:00 AM -7.9961 -54.7506 140° Southeast  Level Estimated
Sat 04:10:00 AM -8.0953 -54.6673 140° Southeast  Level Estimated
Sat 04:11:00 AM -8.1945 -54.5840 140° Southeast  Level Estimated
Sat 04:12:00 AM -8.2937 -54.5006 140° Southeast  Level Estimated
Sat 04:13:00 AM -8.3928 -54.4172 140° Southeast  Level Estimated
Sat 04:14:00 AM -8.4920 -54.3338 140° Southeast  Level Estimated
Sat 04:15:00 AM -8.5911 -54.2503 140° Southeast  Level Estimated
Sat 04:16:00 AM -8.6902 -54.1667 140° Southeast  Level Estimated
Sat 04:17:00 AM -8.7893 -54.0831 140° Southeast  Level Estimated
Sat 04:18:00 AM -8.8883 -53.9995 140° Southeast  Level Estimated
Sat 04:19:00 AM -8.9874 -53.9159 140° Southeast  Level Estimated
Sat 04:20:00 AM -9.0864 -53.8321 140° Southeast  Level Estimated
Sat 04:21:00 AM -9.1854 -53.7484 140° Southeast  Level Estimated
Sat 04:22:00 AM -9.2844 -53.6646 140° Southeast  Level Estimated
Sat 04:23:00 AM -9.3834 -53.5807 140° Southeast  Level Estimated
Sat 04:24:00 AM -9.4823 -53.4968 140° Southeast  Level Estimated
Sat 04:25:00 AM -9.5813 -53.4129 140° Southeast  Level Estimated
Sat 04:26:00 AM -9.6802 -53.3289 140° Southeast  Level Estimated
Sat 04:27:00 AM -9.7791 -53.2448 140° Southeast  Level Estimated
Sat 04:28:00 AM -9.8779 -53.1607 140° Southeast  Level Estimated
Sat 04:29:00 AM -9.9768 -53.0766 140° Southeast  Level Estimated
Sat 04:30:00 AM -10.0756 -52.9924 140° Southeast  Level Estimated
Sat 04:31:00 AM -10.1744 -52.9081 140° Southeast  Level Estimated
Sat 04:32:00 AM -10.2732 -52.8238 140° Southeast  Level Estimated
Sat 04:33:00 AM -10.3720 -52.7395 140° Southeast  Level Estimated
Sat 04:34:00 AM -10.4707 -52.6551 140° Southeast  Level Estimated
Sat 04:35:00 AM -10.5694 -52.5706 140° Southeast  Level Estimated
Sat 04:36:00 AM -10.6681 -52.4861 140° Southeast  Level Estimated
Sat 04:37:00 AM -10.7668 -52.4015 140° Southeast  Level Estimated
Sat 04:38:00 AM -10.8654 -52.3169 140° Southeast  Level Estimated
Sat 04:39:00 AM -10.9641 -52.2322 140° Southeast  Level Estimated
Sat 04:40:00 AM -11.0627 -52.1475 140° Southeast  Level Estimated
Sat 04:41:00 AM -11.1613 -52.0627 140° Southeast  Level Estimated
Sat 04:42:00 AM -11.2598 -51.9778 140° Southeast  Level Estimated
Sat 04:43:00 AM -11.3583 -51.8929 140° Southeast  Level Estimated
Sat 04:44:00 AM -11.4569 -51.8079 140° Southeast  Level Estimated
Sat 04:45:00 AM -11.5553 -51.7229 140° Southeast  Level Estimated
Sat 04:46:00 AM -11.6538 -51.6378 140° Southeast  Level Estimated
Sat 04:47:00 AM -11.7522 -51.5527 140° Southeast  Level Estimated
Sat 04:48:00 AM -11.8506 -51.4674 140° Southeast  Level Estimated
Sat 04:48:42 AM -12.0950 -51.7340 140° Southeast 452 520 37,000  Level FlightAware ADS-B
Sat 04:49:00 AM -11.9490 -51.3822 140° Southeast  Level Estimated
Sat 04:49:22 AM -12.1480 -51.6830 137° Southeast 452 520 37,000  Level FlightAware ADS-B
Sat 04:50:17 AM -12.2190 -51.6140 136° Southeast 452 520 37,000  Level FlightAware ADS-B
Sat 04:50:57 AM -12.2700 -51.5630 136° Southeast 452 520 37,000  Level FlightAware ADS-B
Sat 04:53:00 AM -12.4597 -51.3743 136° Southeast  Level Estimated
Sat 04:54:00 AM -12.5521 -51.2822 136° Southeast  Level Estimated
Sat 04:55:00 AM -12.6446 -51.1900 136° Southeast  Level Estimated
Sat 04:56:00 AM -12.7370 -51.0978 136° Southeast  Level Estimated
Sat 04:57:00 AM -12.8294 -51.0054 136° Southeast  Level Estimated
Sat 04:58:00 AM -12.9217 -50.9130 136° Southeast  Level Estimated
Sat 04:59:00 AM -13.0140 -50.8205 136° Southeast  Level Estimated
Sat 05:00:00 AM -13.1063 -50.7280 136° Southeast  Level Estimated
Sat 05:01:00 AM -13.1986 -50.6354 136° Southeast  Level Estimated
Sat 05:02:00 AM -13.2908 -50.5427 136° Southeast  Level Estimated
Sat 05:03:00 AM -13.3830 -50.4500 136° Southeast  Level Estimated
Sat 05:04:00 AM -13.4751 -50.3572 136° Southeast  Level Estimated
Sat 05:05:00 AM -13.5672 -50.2643 136° Southeast  Level Estimated
Sat 05:06:00 AM -13.6593 -50.1713 136° Southeast  Level Estimated
Sat 05:07:00 AM -13.7513 -50.0783 136° Southeast  Level Estimated
Sat 05:08:00 AM -13.8434 -49.9852 136° Southeast  Level Estimated
Sat 05:09:00 AM -13.9353 -49.8920 135° Southeast  Level Estimated
Sat 05:10:00 AM -14.0273 -49.7988 135° Southeast  Level Estimated
Sat 05:11:00 AM -14.1192 -49.7054 135° Southeast  Level Estimated
Sat 05:12:00 AM -14.2110 -49.6120 135° Southeast  Level Estimated
Sat 05:13:00 AM -14.3029 -49.5185 135° Southeast  Level Estimated
Sat 05:14:00 AM -14.3947 -49.4250 135° Southeast  Level Estimated
Sat 05:15:00 AM -14.4864 -49.3313 135° Southeast  Level Estimated
Sat 05:16:00 AM -14.5781 -49.2376 135° Southeast  Level Estimated
Sat 05:16:07 AM -14.6050 -49.2880 135° Southeast 457 526 37,000  Level FlightAware ADS-B
Sat 05:16:47 AM -14.6690 -49.2340 141° Southeast 457 526 36,900 -840 Descending FlightAware ADS-B
Sat 05:17:47 AM -14.7750 -49.1700 150° Southeast 451 519 35,600 -780 Descending FlightAware ADS-B
Sat 05:18:27 AM -14.8340 -49.1300 147° Southeast 451 519 35,600 -3,474 Level FlightAware ADS-B
Sat 05:19:22 AM -14.9600 -49.0780 158° South 475 547 30,100 -5,400 Descending FlightAware ADS-B
Sat 05:20:07 AM -15.0490 -49.0320 153° Southeast 473 544 26,600 -3,750 Descending FlightAware ADS-B
Sat 05:20:42 AM -15.1160 -48.9960 153° Southeast 463 533 25,100 -2,471 Descending FlightAware ADS-B
Sat 05:21:32 AM -15.2090 -48.9410 150° Southeast 452 520 23,100 -2,274 Descending FlightAware ADS-B
Sat 05:22:17 AM -15.2730 -48.8680 132° Southeast 428 493 21,500 -2,259 Descending FlightAware ADS-B
Sat 05:22:57 AM -15.3240 -48.8020 129° Southeast 417 480 19,900 -2,625 Descending FlightAware ADS-B
Sat 05:23:37 AM -15.3700 -48.7430 129° Southeast 405 466 18,000 -2,824 Descending FlightAware ADS-B
Sat 05:24:22 AM -15.4200 -48.6800 129° Southeast 387 445 15,900 -2,329 Descending FlightAware ADS-B
Sat 05:25:02 AM -15.4560 -48.6360 130° Southeast 366 421 14,700 -2,175 Descending FlightAware ADS-B
Sat 05:25:42 AM -15.5100 -48.5670 129° Southeast 380 437 13,000 -1,835 Descending FlightAware ADS-B
Sat 05:26:27 AM -15.5590 -48.5050 129° Southeast 349 402 12,100 -988 Descending FlightAware ADS-B
Sat 05:27:07 AM -15.5980 -48.4570 130° Southeast 318 366 11,600 -927 Descending FlightAware ADS-B
Sat 05:28:17 AM -15.6530 -48.3870 129° Southeast 271 312 10,400 -1,263 Descending FlightAware ADS-B
Sat 05:28:42 AM -15.6770 -48.3580 131° Southeast 270 311 9,600 -1,700 Descending FlightAware ADS-B
Sat 05:29:17 AM -15.7050 -48.3220 129° Southeast 272 313 8,700 -1,400 Descending FlightAware ADS-B
Sat 05:29:42 AM -15.7250 -48.2960 129° Southeast 272 313 8,200 -1,371 Descending FlightAware ADS-B
Sat 05:29:52 AM -15.7350 -48.2840 131° Southeast 270 311 7,900 -800 Descending FlightAware ADS-B
Sat 05:30:27 AM -15.7610 -48.2510 129° Southeast 257 296 7,600 -500 Descending FlightAware ADS-B
Sat 05:30:52 AM -15.7780 -48.2290 129° Southeast 238 274 7,400 -750 Descending FlightAware ADS-B
Sat 05:31:07 AM -15.7880 -48.2160 129° Southeast 238 274 7,100 -1,029 Descending FlightAware ADS-B
Sat 05:31:27 AM -15.8010 -48.2010 132° Southeast 238 274 6,800 -1,029 Descending FlightAware ADS-B
Sat 05:31:42 AM -15.8100 -48.1890 128° Southeast 238 274 6,500 -1,080 Descending FlightAware ADS-B
Sat 05:32:17 AM -15.8350 -48.1580 130° Southeast 215 247 5,900 -600 Descending FlightAware ADS-B
Sat 05:32:42 AM -15.8490 -48.1390 127° Southeast 215 247 5,900 -800 Level FlightAware ADS-B
Sat 05:33:02 AM -15.8620 -48.1230 130° Southeast 200 230 5,300 -873 Descending FlightAware ADS-B
Sat 05:33:37 AM -15.8740 -48.0990 117° Southeast 169 194 5,100 -200 Descending FlightAware ADS-B
Sat 05:34:02 AM -15.8760 -48.0800 96° East 169 194 5,100 -475 Level FlightAware ADS-B
Sat 05:36:00 AM -15.8626 -47.9127 85° East  Level Estimated
Sat 05:37:00 AM -15.8626 -47.9127 128° Southeast  Level Estimated
Sat 05:37:37 AM -15.8740 -48.0990 128° Southeast 3,200  Level FlightAware ADS-B

Login

Don't have an account? Register now (free) for customized features, flight alerts, and more!